Mountainhome, PA

11:20 PM EDT on September 21, 2014 (GMT -0400)
Wilkes-Barre-Scranton International | Change Station
CLOSE
Current Station
Airport
Location: Avoca,
Elevation: 961 ft
Nearby Weather Stations

Elev 961 ft 41.33 °N, 75.72 °W | Updated 26 minutes ago

Rain
Rain
63 °F
Feels Like 63 °F
N
0
Wind Variable Wind from North

Today
High -- | Low -- °F
--% Chance of Precip.
Yesterday
High -- | Low -- °F
Precip. -- in
6:47 AM 6:59 PM
Waning Crescent, 4% visible
Pressure 29.68 in
Visibility 10.0 miles
Clouds Few 3000 ft
Overcast 4400 ft
Dew Point 60 °F
Humidity 90%
Rainfall 0.20 in
Snow Depth Not available.
UV 0 out of 12
Pollen 2.50 out of 12
Air Quality Not available.
Flu Activity Not available.
METAR KAVP 220254Z AUTO 00000KT 10SM FEW030 OVC044 17/16 A2969 RMK AO2 SLP048 60020 T01720156 51023

More Conditions Fewer Conditions

Pressure 29.68 in
Visibility 10.0 miles
Clouds Few 3000 ft
Overcast 4400 ft
Dew Point 60 °F
Humidity 90%
Rainfall 0.20 in
Snow Depth Not available.
UV 0 out of 12
Pollen 2.50 out of 12
Air Quality Not available.
Flu Activity Not available.
METAR KAVP 220254Z AUTO 00000KT 10SM FEW030 OVC044 17/16 A2969 RMK AO2 SLP048 60020 T01720156 51023

More Conditions Fewer Conditions

10-Day Weather Forecast

Almanac

Astronomy

Sep. 21, 2014 Rise Set
Actual Time 6:47 AM EDT 6:59 PM EDT
Civil Twilight 6:19 AM EDT 7:27 PM EDT
Nautical Twilight 5:47 AM EDT 7:59 PM EDT
Astronomical Twilight 5:14 AM EDT 8:32 PM EDT
Moon 4:17 AM EDT (9/21) 5:35 PM EDT (9/21)
Length of Visible Light 13h 07m
Length of Day
12h 12m
Tomorrow will be 2m 43s shorter.
Waning Crescent, 4% of the Moon is Illuminated
Today
Waning Crescent
Sep 24
New
Oct 1
First Quarter
Oct 8
Full
Oct 15
Last Quarter

Today's Extremes

State Highs State Lows

Community

WunderPhotos

Upload Photos

1,755,371 photos uploaded!

WunderBlogs® & News

Nearby

Snow Depth

Station Depth Elevation
No new snow has been reported.

Earthquake Activity

City Distance Mag. Time & Date
No recent earthquake activity has been reported nearby.
Minimum magnitude displayed is 2.5.

Coastal Water Temperatures

Place Temperature
No Stations Reporting

Nearby Weather Stations